Carlisle, New York
Current Conditions -  °F | °C
As of 9:35 PM on Wednesday 17 Dec 2014 (Local Time) from KNY0 Reporting Station
Overcast Overcast  
Wind Chill: 22°   Ceiling: 1000
Heat Index: 32°   Visibility: 7mi
Dew Point: 29°   Wind: 14mph
Humidity: 90%   Direction: 270°W
Pressure: 29.83"   Gusts: 23mph
Location:  42.76°N, 74.44°W
Report Text: KNY0 180235Z AUTO 27012G20KT 7SM OVC010 00/M02 A2983 RMK AO2 T10021016
Loading
Personal Weather Stations






























Interactive Weather Map New forecast layout! Learn more

10-Day Weather Forecast

Advertisements
Track Severe Weather on mobile